Black Eagle — WDJJ — position and weather

sailwx.info

Track history (hours):
 
Tides and Currents Weather Stations Pressure Air Temp Water Temp Dewpoint Dewpoint Depression Visibility Wind Speed Wind Dir Waves Ship Positions

Black Eagle

Owner: Sealift Inc., Oyster Bay, NY. More information available from US FCC via Universal Licensing System and Coast Guard Vessel Documentation Center.

Last reported at 2017-Mar-20 14:06 UTC. Time now 2017-Mar-29 17:06 UTC.
Position N 29°33' W 093°15'.
Warning: this ship's position is 9 days out of date.

Length 190 m; draft 7 m.

Type: Cargo ship. MMSI: 369542000.

Date/timePositionNaut miles runAvg speedWind from/ knotsBaromVisibWave heightAir tempDewpointWater temp
2017-Mar-20 14:06N 29°33' W 093°15'6 9.2
2017-Mar-20 13:26N 29°38' W 093°19'8 9.5
2017-Mar-20 12:33N 29°46' W 093°21'8 8.3
2017-Mar-20 11:33N 29°54' W 093°21'7 7.2
2017-Mar-20 10:33N 30°02' W 093°20'6 6.3
2017-Mar-20 09:33N 30°08' W 093°20'3 3.4
2017-Mar-20 08:33N 30°11' W 093°18'0 0.1
2017-Mar-20 07:31N 30°11' W 093°18'0 0.0
2017-Mar-20 06:31N 30°11' W 093°18'0 0.0
2017-Mar-20 05:31N 30°11' W 093°18'0 0.0
2017-Mar-20 04:31N 30°11' W 093°18'3 2.7
2017-Mar-20 03:33N 30°12' W 093°16'1 0.7
2017-Mar-20 02:33N 30°13' W 093°15'0 0.0
2017-Mar-20 01:33N 30°13' W 093°15'0 0.0
2017-Mar-20 00:33N 30°13' W 093°15'0 0.0
2017-Mar-19 23:30N 30°13' W 093°15'0 0.0
2017-Mar-19 22:33N 30°13' W 093°15'0 0.0
2017-Mar-19 21:33N 30°13' W 093°15'0 0.0
2017-Mar-19 20:33N 30°13' W 093°15'0 0.0
2017-Mar-19 19:33N 30°13' W 093°15'0 0.0
2017-Mar-19 18:30N 30°13' W 093°15'0 0.0
2017-Mar-19 17:33N 30°13' W 093°15'0 0.0
2017-Mar-19 16:33N 30°13' W 093°15'0 0.0
2017-Mar-19 15:24N 30°13' W 093°15'0 0.0
2017-Mar-19 14:33N 30°13' W 093°15'0 0.0
2017-Mar-19 13:33N 30°13' W 093°15'0 0.0
2017-Mar-19 12:30N 30°13' W 093°15'0 0.0
2017-Mar-19 11:33N 30°13' W 093°15'0 0.0
2017-Mar-19 10:33N 30°13' W 093°15'0 0.0
2017-Mar-19 09:33N 30°13' W 093°15'0 0.0
2017-Mar-19 08:33N 30°13' W 093°15'0 0.0
2017-Mar-19 07:33N 30°13' W 093°15'0 0.0
2017-Mar-19 06:33N 30°13' W 093°15'0 0.0
2017-Mar-19 05:33N 30°13' W 093°15'0 0.0
2017-Mar-19 04:33N 30°13' W 093°15'0 0.0
2017-Mar-19 03:33N 30°13' W 093°15'0 0.0
2017-Mar-19 02:33N 30°13' W 093°15'0 0.0
2017-Mar-19 01:33N 30°13' W 093°15'0 0.0
2017-Mar-19 00:33N 30°13' W 093°15'0 0.0
2017-Mar-18 23:33N 30°13' W 093°15'0 0.0
2017-Mar-18 22:33N 30°13' W 093°15'0 0.0
2017-Mar-18 21:33N 30°13' W 093°15'0 0.0
2017-Mar-18 20:33N 30°13' W 093°15'0 0.0
2017-Mar-18 19:33N 30°13' W 093°15'0 0.0
2017-Mar-18 18:33N 30°13' W 093°15'0 0.0
2017-Mar-18 17:33N 30°13' W 093°15'0 0.0
2017-Mar-18 16:33N 30°13' W 093°15'0 0.0
2017-Mar-18 15:30N 30°13' W 093°15'0 0.0
2017-Mar-18 14:33N 30°13' W 093°15'0 0.0
2017-Mar-18 13:33N 30°13' W 093°15'0 0.0
2017-Mar-18 12:33N 30°13' W 093°15'0 0.0
2017-Mar-18 11:33N 30°13' W 093°15'0 0.0
2017-Mar-18 10:33N 30°13' W 093°15'0 0.0
2017-Mar-18 09:33N 30°13' W 093°15'0 0.0
2017-Mar-18 08:33N 30°13' W 093°15'0 0.0
2017-Mar-18 07:33N 30°13' W 093°15'0 0.0
2017-Mar-18 06:33N 30°13' W 093°15'0 0.0
2017-Mar-18 05:33N 30°13' W 093°15'0 0.0
2017-Mar-18 04:33N 30°13' W 093°15'0 0.0
2017-Mar-18 03:33N 30°13' W 093°15'0 0.0
2017-Mar-18 02:32N 30°13' W 093°15'0 0.0
2017-Mar-18 01:33N 30°13' W 093°15'0 0.0
2017-Mar-18 00:32N 30°13' W 093°15'0 0.0
2017-Mar-17 23:33N 30°13' W 093°15'0 0.0
2017-Mar-17 22:32N 30°13' W 093°15'0 0.0
2017-Mar-17 21:33N 30°13' W 093°15'0 0.0
2017-Mar-17 20:33N 30°13' W 093°15'0 0.0
2017-Mar-17 19:32N 30°13' W 093°15'0 0.0
2017-Mar-17 18:32N 30°13' W 093°15'0 0.0
2017-Mar-17 17:32N 30°13' W 093°15'0 0.0
2017-Mar-17 16:32N 30°13' W 093°15'0 0.0
2017-Mar-17 15:33N 30°13' W 093°15'0 0.0
2017-Mar-17 14:32N 30°13' W 093°15'0 0.0
2017-Mar-17 13:32N 30°13' W 093°15'0 0.0
2017-Mar-17 12:32N 30°13' W 093°15'0 0.0
2017-Mar-17 11:32N 30°13' W 093°15'0 0.0
2017-Mar-17 10:32N 30°13' W 093°15'0 0.0
2017-Mar-17 09:32N 30°13' W 093°15'0 0.0
2017-Mar-17 08:32N 30°13' W 093°15'0 0.0
2017-Mar-17 07:32N 30°13' W 093°15'0 0.0
2017-Mar-17 06:32N 30°13' W 093°15'0 0.0
2017-Mar-17 05:32N 30°13' W 093°15'0 0.0
2017-Mar-17 04:32N 30°13' W 093°15'0 0.0
2017-Mar-17 03:32N 30°13' W 093°15'0 0.0
2017-Mar-17 02:32N 30°13' W 093°15'0 0.0
2017-Mar-17 01:32N 30°13' W 093°15'0 0.0
2017-Mar-17 00:32N 30°13' W 093°15'0 0.0
2017-Mar-16 23:32N 30°13' W 093°15'0 0.0
2017-Mar-16 22:32N 30°13' W 093°15'0 0.0
2017-Mar-16 21:29N 30°13' W 093°15'0 0.0
2017-Mar-16 20:29N 30°13' W 093°15'0 0.0
2017-Mar-16 19:32N 30°13' W 093°15'0 0.0
2017-Mar-16 18:32N 30°13' W 093°15'0 0.0
2017-Mar-16 17:32N 30°13' W 093°15'0 0.0
2017-Mar-16 16:32N 30°13' W 093°15'0 0.0
2017-Mar-16 15:32N 30°13' W 093°15'0 0.0
2017-Mar-16 14:32N 30°13' W 093°15'0 0.0
2017-Mar-16 13:32N 30°13' W 093°15'0 0.0
2017-Mar-16 12:29N 30°13' W 093°15'0 0.0
2017-Mar-16 11:32N 30°13' W 093°15'0 0.0
2017-Mar-16 10:32N 30°13' W 093°15'0 0.0
2017-Mar-16 09:32N 30°13' W 093°15'0 0.0
2017-Mar-16 08:32N 30°13' W 093°15'0 0.0
2017-Mar-16 07:32N 30°13' W 093°15'0 0.0
2017-Mar-16 06:29N 30°13' W 093°15'0 0.0
2017-Mar-16 05:26N 30°13' W 093°15'0 0.0
2017-Mar-16 04:32N 30°13' W 093°15'0 0.0
2017-Mar-16 03:29N 30°13' W 093°15'0 0.0
2017-Mar-16 02:32N 30°13' W 093°15'0 0.0
2017-Mar-16 01:32N 30°13' W 093°15'0 0.0
2017-Mar-16 00:32N 30°13' W 093°15'0 0.0
2017-Mar-15 23:32N 30°13' W 093°15'0 0.0
2017-Mar-15 22:32N 30°13' W 093°15'0 0.0
2017-Mar-15 21:32N 30°13' W 093°15'0 0.0
2017-Mar-15 20:32N 30°13' W 093°15'0 0.0
2017-Mar-15 19:32N 30°13' W 093°15'0 0.0
2017-Mar-15 18:32N 30°13' W 093°15'0 0.0
2017-Mar-15 17:32N 30°13' W 093°15'0 0.0
2017-Mar-15 16:32N 30°13' W 093°15'0 0.0
2017-Mar-15 15:32N 30°13' W 093°15'0 0.0
2017-Mar-15 14:32N 30°13' W 093°15'0 0.0
2017-Mar-15 13:32N 30°13' W 093°15'0 0.0
2017-Mar-15 12:32N 30°13' W 093°15'0 0.0
2017-Mar-15 11:32N 30°13' W 093°15'0 0.0
2017-Mar-15 10:32N 30°13' W 093°15'0 0.0
2017-Mar-15 09:32N 30°13' W 093°15'0 0.0
2017-Mar-15 08:32N 30°13' W 093°15'0 0.0
2017-Mar-15 07:32N 30°13' W 093°15'0 0.0
2017-Mar-15 06:32N 30°13' W 093°15'0 0.0
2017-Mar-15 05:32N 30°13' W 093°15'0 0.0
2017-Mar-15 04:32N 30°13' W 093°15'0 0.0
2017-Mar-15 03:32N 30°13' W 093°15'0 0.0
2017-Mar-15 02:32N 30°13' W 093°15'0 0.0
2017-Mar-15 01:32N 30°13' W 093°15'0 0.0
2017-Mar-15 00:32N 30°13' W 093°15'0 0.0
2017-Mar-14 23:26N 30°13' W 093°15'0 0.0
2017-Mar-14 22:32N 30°13' W 093°15'0 0.0
2017-Mar-14 21:29N 30°13' W 093°15'0 0.0
2017-Mar-14 20:29N 30°13' W 093°15'0 0.0
2017-Mar-14 19:32N 30°13' W 093°15'0 0.0
2017-Mar-14 18:32N 30°13' W 093°15'0 0.0
2017-Mar-14 17:32N 30°13' W 093°15'0 0.0
2017-Mar-14 16:32N 30°13' W 093°15'0 0.0
2017-Mar-14 15:32N 30°13' W 093°15'0 0.0
2017-Mar-14 14:32N 30°13' W 093°15'0 0.0
2017-Mar-14 13:32N 30°13' W 093°15'0 0.0
2017-Mar-14 12:32N 30°13' W 093°15'0 0.0
2017-Mar-14 11:32N 30°13' W 093°15'0 0.0
2017-Mar-14 10:32N 30°13' W 093°15'0 0.0
2017-Mar-14 09:32N 30°13' W 093°15'0 0.0
2017-Mar-14 08:20N 30°13' W 093°15'0 0.0
2017-Mar-14 07:32N 30°13' W 093°15'0 0.0
2017-Mar-14 06:32N 30°13' W 093°15'0 0.0
2017-Mar-14 05:32N 30°13' W 093°15'0 0.0
2017-Mar-14 04:32N 30°13' W 093°15'0 0.0
2017-Mar-14 03:32N 30°13' W 093°15'0 0.0
2017-Mar-14 02:32N 30°13' W 093°15'0 0.0
2017-Mar-14 01:32N 30°13' W 093°15'0 0.0
2017-Mar-14 00:32N 30°13' W 093°15'0 0.0
2017-Mar-13 23:32N 30°13' W 093°15'0 0.0
2017-Mar-13 22:32N 30°13' W 093°15'0 0.0
2017-Mar-13 21:32N 30°13' W 093°15'0 0.0
2017-Mar-13 20:32N 30°13' W 093°15'0 0.0
2017-Mar-13 19:32N 30°13' W 093°15'0 0.0
2017-Mar-13 18:29N 30°13' W 093°15'0 0.0
2017-Mar-13 17:32N 30°13' W 093°15'0 0.0
2017-Mar-13 16:32N 30°13' W 093°15'0 0.0
2017-Mar-13 15:32N 30°13' W 093°15'0 0.0
2017-Mar-13 14:32N 30°13' W 093°15'0 0.0
2017-Mar-13 13:32N 30°13' W 093°15'0 0.0
2017-Mar-13 12:32N 30°13' W 093°15'0 0.0
2017-Mar-13 11:32N 30°13' W 093°15'0 0.0
2017-Mar-13 10:32N 30°13' W 093°15'0 0.0
2017-Mar-13 09:29N 30°13' W 093°15'0 0.0
2017-Mar-13 08:32N 30°13' W 093°15'0 0.0
2017-Mar-13 07:32N 30°13' W 093°15'0 0.0
2017-Mar-13 06:32N 30°13' W 093°15'0 0.0
2017-Mar-13 05:32N 30°13' W 093°15'0 0.0
2017-Mar-13 04:32N 30°13' W 093°15'0 0.0
2017-Mar-13 03:32N 30°13' W 093°15'0 0.0
2017-Mar-13 02:32N 30°13' W 093°15'0 0.0
2017-Mar-13 01:32N 30°13' W 093°15'0 0.0
2017-Mar-13 00:32N 30°13' W 093°15'0 0.0
2017-Mar-12 23:29N 30°13' W 093°15'0 0.0
2017-Mar-12 22:32N 30°13' W 093°15'0 0.0
2017-Mar-12 21:32N 30°13' W 093°15'0 0.0
2017-Mar-12 20:32N 30°13' W 093°15'0 0.0
2017-Mar-12 19:32N 30°13' W 093°15'0 0.0
2017-Mar-12 18:32N 30°13' W 093°15'0 0.0
2017-Mar-12 17:32N 30°13' W 093°15'0 0.0
2017-Mar-12 16:32N 30°13' W 093°15'0 0.0
2017-Mar-12 15:32N 30°13' W 093°15'0 0.0
2017-Mar-12 14:32N 30°13' W 093°15'0 0.0
2017-Mar-12 13:32N 30°13' W 093°15'0 0.0
2017-Mar-12 12:32N 30°13' W 093°15'0 0.0
2017-Mar-12 11:32N 30°13' W 093°15'0 0.0
2017-Mar-12 10:32N 30°13' W 093°15'0 0.0
2017-Mar-12 09:32N 30°13' W 093°15'0 0.0
2017-Mar-12 08:32N 30°13' W 093°15'0 0.0
2017-Mar-12 07:32N 30°13' W 093°15'0 0.0
2017-Mar-12 06:32N 30°13' W 093°15'0 0.0
2017-Mar-12 05:32N 30°13' W 093°15'0 0.0
2017-Mar-12 04:32N 30°13' W 093°15'0 0.0
2017-Mar-12 03:32N 30°13' W 093°15'0 0.0
2017-Mar-12 02:29N 30°13' W 093°15'0 0.0
2017-Mar-12 01:32N 30°13' W 093°15'0 0.0
2017-Mar-12 00:32N 30°13' W 093°15'0 0.0
2017-Mar-11 23:32N 30°13' W 093°15'0 0.0
2017-Mar-11 22:32N 30°13' W 093°15'0 0.0
2017-Mar-11 21:32N 30°13' W 093°15'0 0.0
2017-Mar-11 20:32N 30°13' W 093°15'0 0.0
2017-Mar-11 19:32N 30°13' W 093°15'0 0.0
2017-Mar-11 18:32N 30°13' W 093°15'0 0.0
2017-Mar-11 17:32N 30°13' W 093°15'0 0.0
2017-Mar-11 16:32N 30°13' W 093°15'0 0.0
2017-Mar-11 15:32N 30°13' W 093°15'0 0.0
2017-Mar-11 14:32N 30°13' W 093°15'0 0.0
2017-Mar-11 13:32N 30°13' W 093°15'0 0.0
2017-Mar-11 12:32N 30°13' W 093°15'0 0.0
2017-Mar-11 11:32N 30°13' W 093°15'0 0.0
2017-Mar-11 10:32N 30°13' W 093°15'0 0.0
2017-Mar-11 09:32N 30°13' W 093°15'0 0.0
2017-Mar-11 08:32N 30°13' W 093°15'0 0.0
2017-Mar-11 07:32N 30°13' W 093°15'0 0.0
2017-Mar-11 06:32N 30°13' W 093°15'0 0.0
2017-Mar-11 05:29N 30°13' W 093°15'0 0.0
2017-Mar-11 04:29N 30°13' W 093°15'0 0.0
2017-Mar-11 03:29N 30°13' W 093°15'0 0.0
2017-Mar-11 02:32N 30°13' W 093°15'0 0.0
2017-Mar-11 01:29N 30°13' W 093°15'0 0.0
2017-Mar-11 00:32N 30°13' W 093°15'0 0.0
2017-Mar-10 23:32N 30°13' W 093°15'0 0.0
2017-Mar-10 22:26N 30°13' W 093°15'0 0.0
2017-Mar-10 21:32N 30°13' W 093°15'0 0.0
2017-Mar-10 20:32N 30°13' W 093°15'0 0.0
2017-Mar-10 19:32N 30°13' W 093°15'0 0.0
2017-Mar-10 18:32N 30°13' W 093°15'0 0.0
2017-Mar-10 17:32N 30°13' W 093°15'0 0.0
2017-Mar-10 16:32N 30°13' W 093°15'0 0.0
2017-Mar-10 15:29N 30°13' W 093°15'0 0.0
2017-Mar-10 14:26N 30°13' W 093°15'  
Track history (hours):
 
Tides and Currents Weather Stations Pressure Air Temp Water Temp Dewpoint Dewpoint Depression Visibility Wind Speed Wind Dir Waves Ship Positions

Black Eagle

Owner: Sealift Inc., Oyster Bay, NY. More information available from US FCC via Universal Licensing System and Coast Guard Vessel Documentation Center.

Last reported at 2017-Mar-20 14:06 UTC. Time now 2017-Mar-29 17:06 UTC.
Position N 29°33' W 093°15'.
Warning: this ship's position is 9 days out of date.

Length 190 m; draft 7 m.

Type: Cargo ship. MMSI: 369542000.

Date/timePositionNaut miles runAvg speedWind from/ knotsBaromVisibWave heightAir tempDewpointWater temp
2017-Mar-20 14:06N 29°33' W 093°15'6 9.2
2017-Mar-20 13:26N 29°38' W 093°19'8 9.5
2017-Mar-20 12:33N 29°46' W 093°21'8 8.3
2017-Mar-20 11:33N 29°54' W 093°21'7 7.2
2017-Mar-20 10:33N 30°02' W 093°20'6 6.3
2017-Mar-20 09:33N 30°08' W 093°20'3 3.4
2017-Mar-20 08:33N 30°11' W 093°18'0 0.1
2017-Mar-20 07:31N 30°11' W 093°18'0 0.0
2017-Mar-20 06:31N 30°11' W 093°18'0 0.0
2017-Mar-20 05:31N 30°11' W 093°18'0 0.0
2017-Mar-20 04:31N 30°11' W 093°18'3 2.7
2017-Mar-20 03:33N 30°12' W 093°16'1 0.7
2017-Mar-20 02:33N 30°13' W 093°15'0 0.0
2017-Mar-20 01:33N 30°13' W 093°15'0 0.0
2017-Mar-20 00:33N 30°13' W 093°15'0 0.0
2017-Mar-19 23:30N 30°13' W 093°15'0 0.0
2017-Mar-19 22:33N 30°13' W 093°15'0 0.0
2017-Mar-19 21:33N 30°13' W 093°15'0 0.0
2017-Mar-19 20:33N 30°13' W 093°15'0 0.0
2017-Mar-19 19:33N 30°13' W 093°15'0 0.0
2017-Mar-19 18:30N 30°13' W 093°15'0 0.0
2017-Mar-19 17:33N 30°13' W 093°15'0 0.0
2017-Mar-19 16:33N 30°13' W 093°15'0 0.0
2017-Mar-19 15:24N 30°13' W 093°15'0 0.0
2017-Mar-19 14:33N 30°13' W 093°15'0 0.0
2017-Mar-19 13:33N 30°13' W 093°15'0 0.0
2017-Mar-19 12:30N 30°13' W 093°15'0 0.0
2017-Mar-19 11:33N 30°13' W 093°15'0 0.0
2017-Mar-19 10:33N 30°13' W 093°15'0 0.0
2017-Mar-19 09:33N 30°13' W 093°15'0 0.0
2017-Mar-19 08:33N 30°13' W 093°15'0 0.0
2017-Mar-19 07:33N 30°13' W 093°15'0 0.0
2017-Mar-19 06:33N 30°13' W 093°15'0 0.0
2017-Mar-19 05:33N 30°13' W 093°15'0 0.0
2017-Mar-19 04:33N 30°13' W 093°15'0 0.0
2017-Mar-19 03:33N 30°13' W 093°15'0 0.0
2017-Mar-19 02:33N 30°13' W 093°15'0 0.0
2017-Mar-19 01:33N 30°13' W 093°15'0 0.0
2017-Mar-19 00:33N 30°13' W 093°15'0 0.0
2017-Mar-18 23:33N 30°13' W 093°15'0 0.0
2017-Mar-18 22:33N 30°13' W 093°15'0 0.0
2017-Mar-18 21:33N 30°13' W 093°15'0 0.0
2017-Mar-18 20:33N 30°13' W 093°15'0 0.0
2017-Mar-18 19:33N 30°13' W 093°15'0 0.0
2017-Mar-18 18:33N 30°13' W 093°15'0 0.0
2017-Mar-18 17:33N 30°13' W 093°15'0 0.0
2017-Mar-18 16:33N 30°13' W 093°15'0 0.0
2017-Mar-18 15:30N 30°13' W 093°15'0 0.0
2017-Mar-18 14:33N 30°13' W 093°15'0 0.0
2017-Mar-18 13:33N 30°13' W 093°15'0 0.0
2017-Mar-18 12:33N 30°13' W 093°15'0 0.0
2017-Mar-18 11:33N 30°13' W 093°15'0 0.0
2017-Mar-18 10:33N 30°13' W 093°15'0 0.0
2017-Mar-18 09:33N 30°13' W 093°15'0 0.0
2017-Mar-18 08:33N 30°13' W 093°15'0 0.0
2017-Mar-18 07:33N 30°13' W 093°15'0 0.0
2017-Mar-18 06:33N 30°13' W 093°15'0 0.0
2017-Mar-18 05:33N 30°13' W 093°15'0 0.0
2017-Mar-18 04:33N 30°13' W 093°15'0 0.0
2017-Mar-18 03:33N 30°13' W 093°15'0 0.0
2017-Mar-18 02:32N 30°13' W 093°15'0 0.0
2017-Mar-18 01:33N 30°13' W 093°15'0 0.0
2017-Mar-18 00:32N 30°13' W 093°15'0 0.0
2017-Mar-17 23:33N 30°13' W 093°15'0 0.0
2017-Mar-17 22:32N 30°13' W 093°15'0 0.0
2017-Mar-17 21:33N 30°13' W 093°15'0 0.0
2017-Mar-17 20:33N 30°13' W 093°15'0 0.0
2017-Mar-17 19:32N 30°13' W 093°15'0 0.0
2017-Mar-17 18:32N 30°13' W 093°15'0 0.0
2017-Mar-17 17:32N 30°13' W 093°15'0 0.0
2017-Mar-17 16:32N 30°13' W 093°15'0 0.0
2017-Mar-17 15:33N 30°13' W 093°15'0 0.0
2017-Mar-17 14:32N 30°13' W 093°15'0 0.0
2017-Mar-17 13:32N 30°13' W 093°15'0 0.0
2017-Mar-17 12:32N 30°13' W 093°15'0 0.0
2017-Mar-17 11:32N 30°13' W 093°15'0 0.0
2017-Mar-17 10:32N 30°13' W 093°15'0 0.0
2017-Mar-17 09:32N 30°13' W 093°15'0 0.0
2017-Mar-17 08:32N 30°13' W 093°15'0 0.0
2017-Mar-17 07:32N 30°13' W 093°15'0 0.0
2017-Mar-17 06:32N 30°13' W 093°15'0 0.0
2017-Mar-17 05:32N 30°13' W 093°15'0 0.0
2017-Mar-17 04:32N 30°13' W 093°15'0 0.0
2017-Mar-17 03:32N 30°13' W 093°15'0 0.0
2017-Mar-17 02:32N 30°13' W 093°15'0 0.0
2017-Mar-17 01:32N 30°13' W 093°15'0 0.0
2017-Mar-17 00:32N 30°13' W 093°15'0 0.0
2017-Mar-16 23:32N 30°13' W 093°15'0 0.0
2017-Mar-16 22:32N 30°13' W 093°15'0 0.0
2017-Mar-16 21:29N 30°13' W 093°15'0 0.0
2017-Mar-16 20:29N 30°13' W 093°15'0 0.0
2017-Mar-16 19:32N 30°13' W 093°15'0 0.0
2017-Mar-16 18:32N 30°13' W 093°15'0 0.0
2017-Mar-16 17:32N 30°13' W 093°15'0 0.0
2017-Mar-16 16:32N 30°13' W 093°15'0 0.0
2017-Mar-16 15:32N 30°13' W 093°15'0 0.0
2017-Mar-16 14:32N 30°13' W 093°15'0 0.0
2017-Mar-16 13:32N 30°13' W 093°15'0 0.0
2017-Mar-16 12:29N 30°13' W 093°15'0 0.0
2017-Mar-16 11:32N 30°13' W 093°15'0 0.0
2017-Mar-16 10:32N 30°13' W 093°15'0 0.0
2017-Mar-16 09:32N 30°13' W 093°15'0 0.0
2017-Mar-16 08:32N 30°13' W 093°15'0 0.0
2017-Mar-16 07:32N 30°13' W 093°15'0 0.0
2017-Mar-16 06:29N 30°13' W 093°15'0 0.0
2017-Mar-16 05:26N 30°13' W 093°15'0 0.0
2017-Mar-16 04:32N 30°13' W 093°15'0 0.0
2017-Mar-16 03:29N 30°13' W 093°15'0 0.0
2017-Mar-16 02:32N 30°13' W 093°15'0 0.0
2017-Mar-16 01:32N 30°13' W 093°15'0 0.0
2017-Mar-16 00:32N 30°13' W 093°15'0 0.0
2017-Mar-15 23:32N 30°13' W 093°15'0 0.0
2017-Mar-15 22:32N 30°13' W 093°15'0 0.0
2017-Mar-15 21:32N 30°13' W 093°15'0 0.0
2017-Mar-15 20:32N 30°13' W 093°15'0 0.0
2017-Mar-15 19:32N 30°13' W 093°15'0 0.0
2017-Mar-15 18:32N 30°13' W 093°15'0 0.0
2017-Mar-15 17:32N 30°13' W 093°15'0 0.0
2017-Mar-15 16:32N 30°13' W 093°15'0 0.0
2017-Mar-15 15:32N 30°13' W 093°15'0 0.0
2017-Mar-15 14:32N 30°13' W 093°15'0 0.0
2017-Mar-15 13:32N 30°13' W 093°15'0 0.0
2017-Mar-15 12:32N 30°13' W 093°15'0 0.0
2017-Mar-15 11:32N 30°13' W 093°15'0 0.0
2017-Mar-15 10:32N 30°13' W 093°15'0 0.0
2017-Mar-15 09:32N 30°13' W 093°15'0 0.0
2017-Mar-15 08:32N 30°13' W 093°15'0 0.0
2017-Mar-15 07:32N 30°13' W 093°15'0 0.0
2017-Mar-15 06:32N 30°13' W 093°15'0 0.0
2017-Mar-15 05:32N 30°13' W 093°15'0 0.0
2017-Mar-15 04:32N 30°13' W 093°15'0 0.0
2017-Mar-15 03:32N 30°13' W 093°15'0 0.0
2017-Mar-15 02:32N 30°13' W 093°15'0 0.0
2017-Mar-15 01:32N 30°13' W 093°15'0 0.0
2017-Mar-15 00:32N 30°13' W 093°15'0 0.0
2017-Mar-14 23:26N 30°13' W 093°15'0 0.0
2017-Mar-14 22:32N 30°13' W 093°15'0 0.0
2017-Mar-14 21:29N 30°13' W 093°15'0 0.0
2017-Mar-14 20:29N 30°13' W 093°15'0 0.0
2017-Mar-14 19:32N 30°13' W 093°15'0 0.0
2017-Mar-14 18:32N 30°13' W 093°15'0 0.0
2017-Mar-14 17:32N 30°13' W 093°15'0 0.0
2017-Mar-14 16:32N 30°13' W 093°15'0 0.0
2017-Mar-14 15:32N 30°13' W 093°15'0 0.0
2017-Mar-14 14:32N 30°13' W 093°15'0 0.0
2017-Mar-14 13:32N 30°13' W 093°15'0 0.0
2017-Mar-14 12:32N 30°13' W 093°15'0 0.0
2017-Mar-14 11:32N 30°13' W 093°15'0 0.0
2017-Mar-14 10:32N 30°13' W 093°15'0 0.0
2017-Mar-14 09:32N 30°13' W 093°15'0 0.0
2017-Mar-14 08:20N 30°13' W 093°15'0 0.0
2017-Mar-14 07:32N 30°13' W 093°15'0 0.0
2017-Mar-14 06:32N 30°13' W 093°15'0 0.0
2017-Mar-14 05:32N 30°13' W 093°15'0 0.0
2017-Mar-14 04:32N 30°13' W 093°15'0 0.0
2017-Mar-14 03:32N 30°13' W 093°15'0 0.0
2017-Mar-14 02:32N 30°13' W 093°15'0 0.0
2017-Mar-14 01:32N 30°13' W 093°15'0 0.0
2017-Mar-14 00:32N 30°13' W 093°15'0 0.0
2017-Mar-13 23:32N 30°13' W 093°15'0 0.0
2017-Mar-13 22:32N 30°13' W 093°15'0 0.0
2017-Mar-13 21:32N 30°13' W 093°15'0 0.0
2017-Mar-13 20:32N 30°13' W 093°15'0 0.0
2017-Mar-13 19:32N 30°13' W 093°15'0 0.0
2017-Mar-13 18:29N 30°13' W 093°15'0 0.0
2017-Mar-13 17:32N 30°13' W 093°15'0 0.0
2017-Mar-13 16:32N 30°13' W 093°15'0 0.0
2017-Mar-13 15:32N 30°13' W 093°15'0 0.0
2017-Mar-13 14:32N 30°13' W 093°15'0 0.0
2017-Mar-13 13:32N 30°13' W 093°15'0 0.0
2017-Mar-13 12:32N 30°13' W 093°15'0 0.0
2017-Mar-13 11:32N 30°13' W 093°15'0 0.0
2017-Mar-13 10:32N 30°13' W 093°15'0 0.0
2017-Mar-13 09:29N 30°13' W 093°15'0 0.0
2017-Mar-13 08:32N 30°13' W 093°15'0 0.0
2017-Mar-13 07:32N 30°13' W 093°15'0 0.0
2017-Mar-13 06:32N 30°13' W 093°15'0 0.0
2017-Mar-13 05:32N 30°13' W 093°15'0 0.0
2017-Mar-13 04:32N 30°13' W 093°15'0 0.0
2017-Mar-13 03:32N 30°13' W 093°15'0 0.0
2017-Mar-13 02:32N 30°13' W 093°15'0 0.0
2017-Mar-13 01:32N 30°13' W 093°15'0 0.0
2017-Mar-13 00:32N 30°13' W 093°15'0 0.0
2017-Mar-12 23:29N 30°13' W 093°15'0 0.0
2017-Mar-12 22:32N 30°13' W 093°15'0 0.0
2017-Mar-12 21:32N 30°13' W 093°15'0 0.0
2017-Mar-12 20:32N 30°13' W 093°15'0 0.0
2017-Mar-12 19:32N 30°13' W 093°15'0 0.0
2017-Mar-12 18:32N 30°13' W 093°15'0 0.0
2017-Mar-12 17:32N 30°13' W 093°15'0 0.0
2017-Mar-12 16:32N 30°13' W 093°15'0 0.0
2017-Mar-12 15:32N 30°13' W 093°15'0 0.0
2017-Mar-12 14:32N 30°13' W 093°15'0 0.0
2017-Mar-12 13:32N 30°13' W 093°15'0 0.0
2017-Mar-12 12:32N 30°13' W 093°15'0 0.0
2017-Mar-12 11:32N 30°13' W 093°15'0 0.0
2017-Mar-12 10:32N 30°13' W 093°15'0 0.0
2017-Mar-12 09:32N 30°13' W 093°15'0 0.0
2017-Mar-12 08:32N 30°13' W 093°15'0 0.0
2017-Mar-12 07:32N 30°13' W 093°15'0 0.0
2017-Mar-12 06:32N 30°13' W 093°15'0 0.0
2017-Mar-12 05:32N 30°13' W 093°15'0 0.0
2017-Mar-12 04:32N 30°13' W 093°15'0 0.0
2017-Mar-12 03:32N 30°13' W 093°15'0 0.0
2017-Mar-12 02:29N 30°13' W 093°15'0 0.0
2017-Mar-12 01:32N 30°13' W 093°15'0 0.0
2017-Mar-12 00:32N 30°13' W 093°15'0 0.0
2017-Mar-11 23:32N 30°13' W 093°15'0 0.0
2017-Mar-11 22:32N 30°13' W 093°15'0 0.0
2017-Mar-11 21:32N 30°13' W 093°15'0 0.0
2017-Mar-11 20:32N 30°13' W 093°15'0 0.0
2017-Mar-11 19:32N 30°13' W 093°15'0 0.0
2017-Mar-11 18:32N 30°13' W 093°15'0 0.0
2017-Mar-11 17:32N 30°13' W 093°15'0 0.0
2017-Mar-11 16:32N 30°13' W 093°15'0 0.0
2017-Mar-11 15:32N 30°13' W 093°15'0 0.0
2017-Mar-11 14:32N 30°13' W 093°15'0 0.0
2017-Mar-11 13:32N 30°13' W 093°15'0 0.0
2017-Mar-11 12:32N 30°13' W 093°15'0 0.0
2017-Mar-11 11:32N 30°13' W 093°15'0 0.0
2017-Mar-11 10:32N 30°13' W 093°15'0 0.0
2017-Mar-11 09:32N 30°13' W 093°15'0 0.0
2017-Mar-11 08:32N 30°13' W 093°15'0 0.0
2017-Mar-11 07:32N 30°13' W 093°15'0 0.0
2017-Mar-11 06:32N 30°13' W 093°15'0 0.0
2017-Mar-11 05:29N 30°13' W 093°15'0 0.0
2017-Mar-11 04:29N 30°13' W 093°15'0 0.0
2017-Mar-11 03:29N 30°13' W 093°15'0 0.0
2017-Mar-11 02:32N 30°13' W 093°15'0 0.0
2017-Mar-11 01:29N 30°13' W 093°15'0 0.0
2017-Mar-11 00:32N 30°13' W 093°15'0 0.0
2017-Mar-10 23:32N 30°13' W 093°15'0 0.0
2017-Mar-10 22:26N 30°13' W 093°15'0 0.0
2017-Mar-10 21:32N 30°13' W 093°15'0 0.0
2017-Mar-10 20:32N 30°13' W 093°15'0 0.0
2017-Mar-10 19:32N 30°13' W 093°15'0 0.0
2017-Mar-10 18:32N 30°13' W 093°15'0 0.0
2017-Mar-10 17:32N 30°13' W 093°15'0 0.0
2017-Mar-10 16:32N 30°13' W 093°15'0 0.0
2017-Mar-10 15:29N 30°13' W 093°15'0 0.0
2017-Mar-10 14:26N 30°13' W 093°15'  

Dump ship's entire track history